createdAt,value
2018-08-23T00:00:37.362Z,18.66
2018-08-23T00:03:15.396Z,18.61
2018-08-23T00:05:49.357Z,18.59
2018-08-23T00:08:17.935Z,18.53
2018-08-23T00:10:46.860Z,18.53
2018-08-23T00:13:15.333Z,18.52
2018-08-23T00:15:43.824Z,18.53
2018-08-23T00:18:12.277Z,18.45
2018-08-23T00:20:41.147Z,18.46
2018-08-23T00:23:09.735Z,18.45
2018-08-23T00:25:38.861Z,18.37
2018-08-23T00:28:07.872Z,18.31
2018-08-23T00:30:36.754Z,18.31
2018-08-23T00:33:05.977Z,18.27
2018-08-23T00:35:38.121Z,18.26
2018-08-23T00:38:07.311Z,18.33
2018-08-23T00:40:38.309Z,18.27
2018-08-23T00:43:07.928Z,18.24
2018-08-23T00:45:36.400Z,18.16
2018-08-23T00:48:04.945Z,18.15
2018-08-23T00:50:49.573Z,18.07
2018-08-23T00:53:18.260Z,18.09
2018-08-23T00:55:46.723Z,18.22
2018-08-23T00:58:15.217Z,18.18
2018-08-23T01:00:48.581Z,18.17
2018-08-23T01:03:17.508Z,18.26
2018-08-23T01:05:46.630Z,18.09
2018-08-23T01:08:19.348Z,18.00
2018-08-23T01:10:47.866Z,18.04
2018-08-23T01:13:16.394Z,17.97
2018-08-23T01:15:44.951Z,17.88
2018-08-23T01:18:17.021Z,17.81
2018-08-23T01:20:46.692Z,17.95
2018-08-23T01:23:15.171Z,18.00
2018-08-23T01:25:44.823Z,17.80
2018-08-23T01:28:13.345Z,17.79
2018-08-23T01:30:42.204Z,17.71
2018-08-23T01:33:13.861Z,17.69
2018-08-23T01:35:43.784Z,17.62
2018-08-23T01:38:12.837Z,17.60
2018-08-23T01:40:41.633Z,17.65
2018-08-23T01:43:10.155Z,17.72
2018-08-23T01:45:38.636Z,17.72
2018-08-23T01:48:08.559Z,17.62
2018-08-23T01:50:37.068Z,17.65
2018-08-23T01:53:05.665Z,17.67
2018-08-23T01:55:34.114Z,17.64
2018-08-23T01:58:02.646Z,17.71
2018-08-23T02:00:33.391Z,17.75
2018-08-23T02:03:03.000Z,17.78
2018-08-23T02:05:31.564Z,17.81
2018-08-23T02:08:00.031Z,17.78
2018-08-23T02:10:28.515Z,17.70
2018-08-23T02:12:58.008Z,17.51
2018-08-23T02:15:28.310Z,17.51
2018-08-23T02:17:57.748Z,17.20
2018-08-23T02:20:27.171Z,17.31
2018-08-23T02:22:56.232Z,17.21
2018-08-23T02:25:25.100Z,17.17
2018-08-23T02:28:01.396Z,17.15
2018-08-23T02:30:42.345Z,17.16
2018-08-23T02:33:12.046Z,17.19
2018-08-23T02:35:41.245Z,17.17
2018-08-23T02:38:10.000Z,17.19
2018-08-23T02:40:39.491Z,17.19
2018-08-23T02:43:08.198Z,17.15
2018-08-23T02:45:42.006Z,17.17
2018-08-23T02:48:10.524Z,17.14
2018-08-23T02:50:39.005Z,17.19
2018-08-23T02:53:24.233Z,17.11
2018-08-23T02:55:53.698Z,17.02
2018-08-23T02:58:23.747Z,17.02
2018-08-23T03:00:52.247Z,16.99
2018-08-23T03:03:20.957Z,16.97
2018-08-23T03:05:49.414Z,16.92
2018-08-23T03:08:22.465Z,16.85
2018-08-23T03:10:51.040Z,16.81
2018-08-23T03:13:24.080Z,16.79
2018-08-23T03:15:52.609Z,16.78
2018-08-23T03:18:21.097Z,16.77
2018-08-23T03:20:54.299Z,16.75
2018-08-23T03:23:22.745Z,16.68
2018-08-23T03:25:51.228Z,16.78
2018-08-23T03:28:19.705Z,16.80
2018-08-23T03:30:52.564Z,16.85
2018-08-23T03:33:21.008Z,16.88
2018-08-23T03:35:49.476Z,16.89
2018-08-23T03:38:18.028Z,16.89
2018-08-23T03:40:46.540Z,16.86
2018-08-23T03:43:15.016Z,16.79
2018-08-23T03:45:43.484Z,16.74
2018-08-23T03:48:11.939Z,16.65
2018-08-23T03:50:45.591Z,16.64
2018-08-23T03:53:14.157Z,16.59
2018-08-23T03:55:42.692Z,16.61
2018-08-23T03:58:11.225Z,16.54
2018-08-23T04:00:57.951Z,16.47
2018-08-23T04:03:26.439Z,16.37
2018-08-23T04:05:55.352Z,16.36
2018-08-23T04:08:23.824Z,16.37
2018-08-23T04:10:52.310Z,16.45
2018-08-23T04:13:20.836Z,16.38
2018-08-23T04:15:49.311Z,16.44
2018-08-23T04:18:18.015Z,16.50
2018-08-23T04:20:52.650Z,16.58
2018-08-23T04:23:21.149Z,16.56
2018-08-23T04:25:49.649Z,16.56
2018-08-23T04:28:18.173Z,16.67
2018-08-23T04:30:46.649Z,16.80
2018-08-23T04:33:15.441Z,16.92
2018-08-23T04:35:43.877Z,16.99
2018-08-23T04:38:12.332Z,17.06
2018-08-23T04:40:45.917Z,17.14
2018-08-23T04:43:14.399Z,17.26
2018-08-23T04:45:42.970Z,17.39
2018-08-23T04:48:11.480Z,17.36
2018-08-23T04:50:40.806Z,17.35
2018-08-23T04:53:09.317Z,17.33
2018-08-23T04:55:37.797Z,17.35
2018-08-23T04:58:06.353Z,17.45
2018-08-23T05:00:34.837Z,17.46
2018-08-23T05:03:03.341Z,17.52
2018-08-23T05:05:31.826Z,17.57
2018-08-23T05:08:00.318Z,17.65
2018-08-23T05:10:28.783Z,17.69
2018-08-23T05:12:57.269Z,17.73
2018-08-23T05:15:25.807Z,17.79
2018-08-23T05:17:54.285Z,17.85
2018-08-23T05:20:22.872Z,17.87
2018-08-23T05:22:56.811Z,17.88
2018-08-23T05:25:25.997Z,17.94
2018-08-23T05:28:11.381Z,17.91
2018-08-23T05:30:40.092Z,17.95
2018-08-23T05:33:23.396Z,17.93
2018-08-23T05:35:51.924Z,17.95
2018-08-23T05:38:20.809Z,18.02
2018-08-23T05:41:03.323Z,18.12
2018-08-23T05:43:31.792Z,18.16
2018-08-23T05:46:00.882Z,18.14
2018-08-23T05:48:30.261Z,18.20
2018-08-23T05:50:59.418Z,18.27
2018-08-23T05:53:27.936Z,18.32
2018-08-23T05:55:57.784Z,18.35
2018-08-23T05:58:30.497Z,18.53
2018-08-23T06:00:59.015Z,18.62
2018-08-23T06:03:27.549Z,18.64
2018-08-23T06:05:56.067Z,18.55
2018-08-23T06:08:24.666Z,18.47
2018-08-23T06:11:01.450Z,18.40
2018-08-23T06:13:33.175Z,18.33
2018-08-23T06:16:01.678Z,18.37
2018-08-23T06:18:30.153Z,18.45
2018-08-23T06:20:58.700Z,18.53
2018-08-23T06:24:10.012Z,18.54
2018-08-23T06:26:46.342Z,18.56
2018-08-23T06:29:17.873Z,18.60
2018-08-23T06:31:47.014Z,18.65
2018-08-23T06:34:15.527Z,18.66
2018-08-23T06:36:46.290Z,18.71
2018-08-23T06:39:14.743Z,18.82
2018-08-23T06:41:43.244Z,18.85
2018-08-23T06:44:12.119Z,18.84
2018-08-23T06:46:40.597Z,18.84
2018-08-23T06:49:09.103Z,18.80
2018-08-23T06:51:37.635Z,18.78
2018-08-23T06:54:06.134Z,18.87
2018-08-23T06:56:37.560Z,18.96
2018-08-23T06:59:06.376Z,18.92
2018-08-23T07:01:40.427Z,18.98
2018-08-23T07:04:11.792Z,19.07
2018-08-23T07:06:40.299Z,19.03
2018-08-23T07:09:17.043Z,18.95
2018-08-23T07:11:45.869Z,18.94
2018-08-23T07:14:15.392Z,18.97
2018-08-23T07:16:47.788Z,18.96
2018-08-23T07:19:28.019Z,18.93
2018-08-23T07:21:57.216Z,18.95
2018-08-23T07:24:44.159Z,19.01
2018-08-23T07:27:14.969Z,19.10
2018-08-23T07:29:48.684Z,19.11
2018-08-23T07:32:22.480Z,19.20
2018-08-23T07:35:02.133Z,19.25
2018-08-23T07:37:31.508Z,19.31
2018-08-23T07:40:05.140Z,19.41
2018-08-23T07:42:34.492Z,19.45
2018-08-23T07:45:03.299Z,19.62
2018-08-23T07:47:32.512Z,19.77
2018-08-23T07:50:02.249Z,19.69
2018-08-23T07:52:31.911Z,19.61
2018-08-23T07:55:01.744Z,19.72
2018-08-23T07:57:32.387Z,19.94
2018-08-23T08:00:02.471Z,19.95
2018-08-23T08:02:31.031Z,20.07
2018-08-23T08:04:59.861Z,20.15
2018-08-23T08:07:30.341Z,20.19
2018-08-23T08:10:01.035Z,20.30
2018-08-23T08:12:36.716Z,20.40
2018-08-23T08:15:10.685Z,20.59
2018-08-23T08:17:39.053Z,20.85
2018-08-23T08:20:09.188Z,20.88
2018-08-23T08:22:37.731Z,21.00
2018-08-23T08:25:13.184Z,21.03
2018-08-23T08:27:41.835Z,21.05
2018-08-23T08:30:12.409Z,21.10
2018-08-23T08:32:40.861Z,21.18
2018-08-23T08:35:16.392Z,21.14
2018-08-23T08:37:46.171Z,21.15
2018-08-23T08:40:19.109Z,21.03
2018-08-23T08:42:47.551Z,20.98
2018-08-23T08:45:16.069Z,20.92
2018-08-23T08:47:45.838Z,21.03
2018-08-23T08:50:14.772Z,21.12
2018-08-23T08:52:43.268Z,21.09
2018-08-23T08:55:13.316Z,21.13
2018-08-23T08:57:46.161Z,21.14
2018-08-23T09:00:14.707Z,21.02
2018-08-23T09:02:43.266Z,21.11
2018-08-23T09:05:12.144Z,21.37
2018-08-23T09:07:42.548Z,21.42
2018-08-23T09:10:11.061Z,21.61
2018-08-23T09:12:44.956Z,21.58
2018-08-23T09:15:13.441Z,21.56
2018-08-23T09:17:46.967Z,21.83
2018-08-23T09:20:18.416Z,21.99
2018-08-23T09:22:55.009Z,21.97
2018-08-23T09:25:34.069Z,22.05
2018-08-23T09:28:02.625Z,22.19
2018-08-23T09:30:32.316Z,22.21
2018-08-23T09:33:06.089Z,22.23
2018-08-23T09:35:35.176Z,22.22
2018-08-23T09:38:09.775Z,22.30
2018-08-23T09:40:38.361Z,22.36
2018-08-23T09:43:06.874Z,22.12
2018-08-23T09:45:36.175Z,22.16
2018-08-23T09:48:04.739Z,22.06
2018-08-23T09:50:33.274Z,22.11
2018-08-23T09:53:01.824Z,22.22
2018-08-23T09:55:32.869Z,22.27
2018-08-23T09:58:01.497Z,22.37
2018-08-23T10:00:35.396Z,22.59
2018-08-23T10:03:09.032Z,22.68
2018-08-23T10:05:47.668Z,22.67
2018-08-23T10:08:22.102Z,22.74
2018-08-23T10:10:55.857Z,22.74
2018-08-23T10:13:29.779Z,22.50
2018-08-23T10:16:04.042Z,22.52
2018-08-23T10:18:37.866Z,22.69
2018-08-23T10:21:06.426Z,22.91
2018-08-23T10:23:34.884Z,23.06
2018-08-23T10:26:08.580Z,23.06
2018-08-23T10:28:42.550Z,23.22
2018-08-23T10:31:11.059Z,23.42
2018-08-23T10:33:39.544Z,23.51
2018-08-23T10:36:08.033Z,23.84
2018-08-23T10:38:36.536Z,24.17
2018-08-23T10:41:06.073Z,24.22
2018-08-23T10:43:39.771Z,24.40
2018-08-23T10:46:08.220Z,24.39
2018-08-23T10:48:36.704Z,24.53
2018-08-23T10:51:05.372Z,24.61
2018-08-23T10:53:33.749Z,24.94
2018-08-23T10:56:02.407Z,25.03
2018-08-23T10:58:30.870Z,25.05
2018-08-23T11:00:59.753Z,24.94
2018-08-23T11:03:28.990Z,25.17
2018-08-23T11:05:57.469Z,25.42
2018-08-23T11:08:30.029Z,25.69
2018-08-23T11:11:36.315Z,26.03
2018-08-23T11:14:10.222Z,26.21
2018-08-23T11:16:44.039Z,25.91
2018-08-23T11:19:17.821Z,25.97
2018-08-23T11:21:46.327Z,25.47
2018-08-23T11:24:14.799Z,25.31
2018-08-23T11:26:43.279Z,25.29
2018-08-23T11:29:11.840Z,25.59
2018-08-23T11:31:40.376Z,25.71
2018-08-23T11:34:08.874Z,25.81
2018-08-23T11:36:37.391Z,25.99
2018-08-23T11:39:08.333Z,26.04
2018-08-23T11:41:36.853Z,26.32
2018-08-23T11:44:05.393Z,26.21
2018-08-23T11:46:33.921Z,26.01
2018-08-23T11:49:02.592Z,25.87
2018-08-23T11:51:31.120Z,25.97
2018-08-23T11:53:59.666Z,25.83
2018-08-23T11:56:28.241Z,25.86
2018-08-23T11:58:56.803Z,26.39
2018-08-23T12:01:25.477Z,26.65
2018-08-23T12:03:54.022Z,26.94
2018-08-23T12:06:22.518Z,27.00
2018-08-23T12:08:51.001Z,27.26
2018-08-23T12:11:19.532Z,27.51
2018-08-23T12:13:49.707Z,27.30
2018-08-23T12:16:18.471Z,27.44
2018-08-23T12:18:47.073Z,27.42
2018-08-23T12:21:15.757Z,27.41
2018-08-23T12:23:44.272Z,27.51
2018-08-23T12:26:12.769Z,27.62
2018-08-23T12:28:46.523Z,27.70
2018-08-23T12:31:14.988Z,27.56
2018-08-23T12:33:43.546Z,27.75
2018-08-23T12:36:12.524Z,28.02
2018-08-23T12:38:46.422Z,28.00
2018-08-23T12:41:20.097Z,27.73
2018-08-23T12:43:49.764Z,27.84
2018-08-23T12:46:18.610Z,27.90
2018-08-23T12:48:47.673Z,28.08
2018-08-23T12:51:16.182Z,28.09
2018-08-23T12:53:44.662Z,28.14
2018-08-23T12:56:13.315Z,28.05
2018-08-23T12:58:41.760Z,28.04
2018-08-23T13:01:10.276Z,28.20
2018-08-23T13:03:38.867Z,28.23
2018-08-23T13:06:07.378Z,28.35
2018-08-23T13:08:35.846Z,28.27
2018-08-23T13:11:04.412Z,28.34
2018-08-23T13:13:32.849Z,28.57
2018-08-23T13:16:01.344Z,28.62
2018-08-23T13:18:29.814Z,28.50
2018-08-23T13:20:58.328Z,28.62
2018-08-23T13:23:27.016Z,28.71
2018-08-23T13:25:57.624Z,28.54
2018-08-23T13:28:27.271Z,28.35
2018-08-23T13:30:55.799Z,28.43
2018-08-23T13:33:25.363Z,28.82
2018-08-23T13:35:53.836Z,28.77
2018-08-23T13:38:22.369Z,28.88
2018-08-23T13:40:50.801Z,28.71
2018-08-23T13:43:19.496Z,28.44
2018-08-23T13:45:47.933Z,28.45
2018-08-23T13:48:16.598Z,28.36
2018-08-23T13:50:45.112Z,28.16
2018-08-23T13:53:13.729Z,27.97
2018-08-23T13:55:42.193Z,27.85
2018-08-23T13:58:10.792Z,28.00
2018-08-23T14:00:40.040Z,28.13
2018-08-23T14:03:09.857Z,28.30
2018-08-23T14:05:39.500Z,28.46
2018-08-23T14:08:08.178Z,28.49
2018-08-23T14:10:36.749Z,28.52
2018-08-23T14:13:05.550Z,28.35
2018-08-23T14:15:39.365Z,28.43
2018-08-23T14:18:07.856Z,28.59
2018-08-23T14:20:36.408Z,28.58
2018-08-23T14:23:05.006Z,28.47
2018-08-23T14:25:33.604Z,28.03
2018-08-23T14:28:02.123Z,28.17
2018-08-23T14:30:30.735Z,28.27
2018-08-23T14:32:59.457Z,28.37
2018-08-23T14:35:28.031Z,28.45
2018-08-23T14:37:56.561Z,28.10
2018-08-23T14:40:25.179Z,27.87
2018-08-23T14:42:53.636Z,27.90
2018-08-23T14:45:27.460Z,27.69
2018-08-23T14:48:01.146Z,27.43
2018-08-23T14:50:29.651Z,27.56
2018-08-23T14:52:58.414Z,27.83
2018-08-23T14:55:32.074Z,27.87
2018-08-23T14:58:00.588Z,27.68
2018-08-23T15:00:29.144Z,27.67
2018-08-23T15:02:57.670Z,27.62
2018-08-23T15:05:26.248Z,27.85
2018-08-23T15:07:54.758Z,27.50
2018-08-23T15:10:23.205Z,27.51
2018-08-23T15:12:51.755Z,27.52
2018-08-23T15:15:24.374Z,27.35
2018-08-23T15:17:52.984Z,27.09
2018-08-23T15:20:21.456Z,27.08
2018-08-23T15:22:49.961Z,27.01
2018-08-23T15:25:18.469Z,27.03
2018-08-23T15:27:47.066Z,27.08
2018-08-23T15:30:18.773Z,27.05
2018-08-23T15:32:47.214Z,26.88
2018-08-23T15:35:15.706Z,26.78
2018-08-23T15:37:44.264Z,26.66
2018-08-23T15:40:12.765Z,26.81
2018-08-23T15:42:41.288Z,26.80
2018-08-23T15:45:09.765Z,26.80
2018-08-23T15:47:38.232Z,26.83
2018-08-23T15:50:06.788Z,26.85
2018-08-23T15:52:35.271Z,26.76
2018-08-23T15:55:03.862Z,26.58
2018-08-23T15:57:32.283Z,26.50
2018-08-23T16:00:00.752Z,26.33
2018-08-23T16:02:29.338Z,26.43
2018-08-23T16:04:57.848Z,26.61
2018-08-23T16:07:26.384Z,26.72
2018-08-23T16:09:54.861Z,26.74
2018-08-23T16:12:23.435Z,26.77
2018-08-23T16:14:51.912Z,26.72
2018-08-23T16:17:25.780Z,26.47
2018-08-23T16:19:59.472Z,26.33
2018-08-23T16:22:28.115Z,26.25
2018-08-23T16:24:56.690Z,26.19
2018-08-23T16:27:25.104Z,26.29
2018-08-23T16:29:54.061Z,26.16
2018-08-23T16:32:27.898Z,26.12
2018-08-23T16:34:56.383Z,26.09
2018-08-23T16:37:24.912Z,25.94
2018-08-23T16:39:53.382Z,25.93
2018-08-23T16:42:21.819Z,25.96
2018-08-23T16:44:50.296Z,25.91
2018-08-23T16:47:18.784Z,25.93
2018-08-23T16:49:47.255Z,25.91
2018-08-23T16:52:15.703Z,25.59
2018-08-23T16:54:44.208Z,25.62
2018-08-23T16:57:13.432Z,25.59
2018-08-23T16:59:41.913Z,25.57
2018-08-23T17:02:10.784Z,25.52
2018-08-23T17:04:44.280Z,25.53
2018-08-23T17:07:14.015Z,25.49
2018-08-23T17:09:42.496Z,25.46
2018-08-23T17:12:11.089Z,25.26
2018-08-23T17:14:39.614Z,25.18
2018-08-23T17:17:13.293Z,25.13
2018-08-23T17:19:41.781Z,25.19
2018-08-23T17:22:10.212Z,25.08
2018-08-23T17:24:38.904Z,25.09
2018-08-23T17:27:07.328Z,25.07
2018-08-23T17:29:35.788Z,24.94
2018-08-23T17:32:04.294Z,24.85
2018-08-23T17:34:32.744Z,24.78
2018-08-23T17:37:01.216Z,24.69
2018-08-23T17:39:29.663Z,24.69
2018-08-23T17:41:58.208Z,24.70
2018-08-23T17:44:26.788Z,24.59
2018-08-23T17:46:55.304Z,24.54
2018-08-23T17:49:23.806Z,24.52
2018-08-23T17:51:52.273Z,24.49
2018-08-23T17:54:20.753Z,24.39
2018-08-23T17:56:49.655Z,24.33
2018-08-23T17:59:18.129Z,24.20
2018-08-23T18:01:46.644Z,24.11
2018-08-23T18:04:15.114Z,24.07
2018-08-23T18:06:43.634Z,24.05
2018-08-23T18:09:13.355Z,23.99
2018-08-23T18:11:42.012Z,23.90
2018-08-23T18:14:10.612Z,23.79
2018-08-23T18:16:44.503Z,23.72
2018-08-23T18:19:20.169Z,23.61
2018-08-23T18:21:48.642Z,23.58
2018-08-23T18:24:17.128Z,23.54
2018-08-23T18:26:45.576Z,23.44
2018-08-23T18:29:14.080Z,23.26
2018-08-23T18:31:42.615Z,23.23
2018-08-23T18:34:11.067Z,23.08
2018-08-23T18:36:39.532Z,22.98
2018-08-23T18:39:09.219Z,22.92
2018-08-23T18:41:37.691Z,22.78
2018-08-23T18:44:06.348Z,22.60
2018-08-23T18:46:34.842Z,22.56
2018-08-23T18:49:03.461Z,22.56
2018-08-23T18:51:32.399Z,22.36
2018-08-23T18:54:01.287Z,22.36
2018-08-23T18:56:30.439Z,22.25
2018-08-23T18:58:59.141Z,22.07
2018-08-23T19:01:27.660Z,21.89
2018-08-23T19:03:56.147Z,21.84
2018-08-23T19:06:39.972Z,21.78
2018-08-23T19:09:10.896Z,21.67
2018-08-23T19:11:39.380Z,21.60
2018-08-23T19:14:07.860Z,21.50
2018-08-23T19:16:41.573Z,21.39
2018-08-23T19:19:10.484Z,21.34
2018-08-23T19:21:38.956Z,21.24
2018-08-23T19:24:07.462Z,21.21
2018-08-23T19:26:35.943Z,21.15
2018-08-23T19:29:04.421Z,20.98
2018-08-23T19:31:32.977Z,21.00
2018-08-23T19:34:01.668Z,20.94
2018-08-23T19:36:30.120Z,20.81
2018-08-23T19:38:58.583Z,20.80
2018-08-23T19:41:27.068Z,20.77
2018-08-23T19:43:55.611Z,20.64
2018-08-23T19:46:29.428Z,20.54
2018-08-23T19:49:03.312Z,20.47
2018-08-23T19:51:31.775Z,20.40
2018-08-23T19:54:00.598Z,20.43
2018-08-23T19:56:29.147Z,20.42
2018-08-23T19:58:57.637Z,20.31
2018-08-23T20:01:26.123Z,20.21
2018-08-23T20:03:54.624Z,20.09
2018-08-23T20:06:23.106Z,20.05
2018-08-23T20:08:51.604Z,20.04
2018-08-23T20:11:20.148Z,20.01
2018-08-23T20:13:48.684Z,19.94
2018-08-23T20:16:17.168Z,19.89
2018-08-23T20:18:45.653Z,19.88
2018-08-23T20:21:14.117Z,19.85
2018-08-23T20:23:42.610Z,19.78
2018-08-23T20:26:11.084Z,19.74
2018-08-23T20:28:39.568Z,19.70
2018-08-23T20:31:08.403Z,19.58
2018-08-23T20:33:36.992Z,19.59
2018-08-23T20:36:05.468Z,19.61
2018-08-23T20:38:33.992Z,19.59
2018-08-23T20:41:02.479Z,19.55
2018-08-23T20:43:30.926Z,19.42
2018-08-23T20:45:59.378Z,19.33
2018-08-23T20:48:27.916Z,19.29
2018-08-23T20:50:56.420Z,19.27
2018-08-23T20:53:24.872Z,19.23
2018-08-23T20:55:53.329Z,19.24
2018-08-23T20:58:21.816Z,19.19
2018-08-23T21:00:50.319Z,19.13
2018-08-23T21:03:18.812Z,19.20
2018-08-23T21:05:47.265Z,19.18
2018-08-23T21:08:16.132Z,19.13
2018-08-23T21:10:44.595Z,18.99
2018-08-23T21:13:13.165Z,19.12
2018-08-23T21:15:41.968Z,19.04
2018-08-23T21:18:11.703Z,18.99
2018-08-23T21:20:41.060Z,18.84
2018-08-23T21:23:09.554Z,18.81
2018-08-23T21:25:38.067Z,18.80
2018-08-23T21:28:06.542Z,18.73
2018-08-23T21:30:34.989Z,18.63
2018-08-23T21:33:03.495Z,18.68
2018-08-23T21:35:32.064Z,18.68
2018-08-23T21:38:00.538Z,18.59
2018-08-23T21:40:29.057Z,18.48
2018-08-23T21:42:57.539Z,18.45
2018-08-23T21:45:26.049Z,18.47
2018-08-23T21:47:54.528Z,18.49
2018-08-23T21:50:23.004Z,18.53
2018-08-23T21:52:51.620Z,18.57
2018-08-23T21:55:24.625Z,18.62
2018-08-23T21:57:53.084Z,18.76
2018-08-23T22:00:21.568Z,18.89
2018-08-23T22:02:50.016Z,18.82
2018-08-23T22:05:18.474Z,18.83
2018-08-23T22:07:46.937Z,18.80
2018-08-23T22:10:15.411Z,18.82
2018-08-23T22:12:43.871Z,18.92
2018-08-23T22:15:12.534Z,18.90
2018-08-23T22:17:41.012Z,18.84
2018-08-23T22:20:09.468Z,18.83
2018-08-23T22:22:37.924Z,18.82
2018-08-23T22:25:06.627Z,18.81
2018-08-23T22:27:35.064Z,18.77
2018-08-23T22:30:03.580Z,18.76
2018-08-23T22:32:32.073Z,18.78
2018-08-23T22:35:00.569Z,18.62
2018-08-23T22:37:29.020Z,18.54
2018-08-23T22:39:57.484Z,18.44
2018-08-23T22:42:26.010Z,18.38
2018-08-23T22:44:54.508Z,18.33
2018-08-23T22:47:22.989Z,18.25
2018-08-23T22:49:51.476Z,18.16
2018-08-23T22:52:20.044Z,18.19
2018-08-23T22:54:48.498Z,18.20
2018-08-23T22:57:17.078Z,18.06
2018-08-23T22:59:45.633Z,17.91
2018-08-23T23:02:18.481Z,17.91
2018-08-23T23:04:47.041Z,17.93
2018-08-23T23:07:15.492Z,17.93
2018-08-23T23:09:43.952Z,17.88
2018-08-23T23:12:12.496Z,17.83
2018-08-23T23:14:41.341Z,17.80
2018-08-23T23:17:10.810Z,17.78
2018-08-23T23:19:39.416Z,17.84
2018-08-23T23:22:08.192Z,17.86
2018-08-23T23:24:41.834Z,17.78
2018-08-23T23:27:10.325Z,17.80
2018-08-23T23:29:38.816Z,17.90
2018-08-23T23:32:07.322Z,17.84
2018-08-23T23:34:35.817Z,17.81
2018-08-23T23:37:04.320Z,17.85
2018-08-23T23:39:32.862Z,17.93
2018-08-23T23:42:01.345Z,17.98
2018-08-23T23:44:29.818Z,17.96
2018-08-23T23:46:58.280Z,17.98
2018-08-23T23:49:26.837Z,17.96
2018-08-23T23:51:55.332Z,18.05
2018-08-23T23:54:23.844Z,18.06
2018-08-23T23:56:52.295Z,18.07
2018-08-23T23:59:20.745Z,18.06
